sensor_id;sensor_type;location;lat;lon;timestamp;pressure;altitude;pressure_sealevel;temperature;humidity
43770;BME280;6597;52.218;9.882;2023-02-13T00:01:52;103010.25;;;7.40;100.00
43770;BME280;6597;52.218;9.882;2023-02-13T00:04:22;103009.38;;;7.38;100.00
43770;BME280;6597;52.218;9.882;2023-02-13T00:07:04;103004.97;;;7.35;100.00
43770;BME280;6597;52.218;9.882;2023-02-13T00:09:31;103010.16;;;7.31;100.00
43770;BME280;6597;52.218;9.882;2023-02-13T00:11:58;103014.44;;;7.27;100.00
43770;BME280;6597;52.218;9.882;2023-02-13T00:14:24;103014.44;;;7.27;100.00
43770;BME280;6597;52.218;9.882;2023-02-13T00:16:50;103011.81;;;7.26;100.00
43770;BME280;6597;52.218;9.882;2023-02-13T00:19:17;103015.31;;;7.28;100.00
43770;BME280;6597;52.218;9.882;2023-02-13T00:21:44;103011.84;;;7.27;100.00
43770;BME280;6597;52.218;9.882;2023-02-13T00:24:21;103005.78;;;7.30;100.00
43770;BME280;6597;52.218;9.882;2023-02-13T00:26:54;103004.88;;;7.28;100.00
43770;BME280;6597;52.218;9.882;2023-02-13T00:29:21;103009.19;;;7.26;100.00
43770;BME280;6597;52.218;9.882;2023-02-13T00:31:48;103013.53;;;7.24;100.00
43770;BME280;6597;52.218;9.882;2023-02-13T00:34:15;103011.78;;;7.23;100.00
43770;BME280;6597;52.218;9.882;2023-02-13T00:36:42;103010.03;;;7.23;100.00
43770;BME280;6597;52.218;9.882;2023-02-13T00:39:10;103011.78;;;7.23;100.00
43770;BME280;6597;52.218;9.882;2023-02-13T00:41:39;103004.81;;;7.23;100.00
43770;BME280;6597;52.218;9.882;2023-02-13T00:44:08;103006.56;;;7.24;100.00
43770;BME280;6597;52.218;9.882;2023-02-13T00:46:35;103011.78;;;7.24;100.00
43770;BME280;6597;52.218;9.882;2023-02-13T00:49:02;103011.81;;;7.26;100.00
43770;BME280;6597;52.218;9.882;2023-02-13T00:51:33;103015.31;;;7.26;100.00
43770;BME280;6597;52.218;9.882;2023-02-13T00:53:59;103011.78;;;7.24;100.00
43770;BME280;6597;52.218;9.882;2023-02-13T00:56:27;103011.78;;;7.23;100.00
43770;BME280;6597;52.218;9.882;2023-02-13T00:58:55;103009.13;;;7.21;100.00
43770;BME280;6597;52.218;9.882;2023-02-13T01:01:23;103012.63;;;7.22;100.00
43770;BME280;6597;52.218;9.882;2023-02-13T01:03:50;103006.50;;;7.20;100.00
43770;BME280;6597;52.218;9.882;2023-02-13T01:06:17;103008.19;;;7.16;100.00
43770;BME280;6597;52.218;9.882;2023-02-13T01:08:44;103006.50;;;7.18;100.00
43770;BME280;6597;52.218;9.882;2023-02-13T01:11:10;102996.91;;;7.17;100.00
43770;BME280;6597;52.218;9.882;2023-02-13T01:13:37;102998.63;;;7.16;100.00
43770;BME280;6597;52.218;9.882;2023-02-13T01:16:05;102992.47;;;7.14;100.00
43770;BME280;6597;52.218;9.882;2023-02-13T01:18:32;102999.44;;;7.14;100.00
43770;BME280;6597;52.218;9.882;2023-02-13T01:21:01;102996.03;;;7.18;100.00
43770;BME280;6597;52.218;9.882;2023-02-13T01:23:32;102992.53;;;7.16;100.00
43770;BME280;6597;52.218;9.882;2023-02-13T01:25:59;102991.59;;;7.14;100.00
43770;BME280;6597;52.218;9.882;2023-02-13T01:28:26;102981.03;;;7.06;100.00
43770;BME280;6597;52.218;9.882;2023-02-13T01:30:53;102981.97;;;7.11;100.00
43770;BME280;6597;52.218;9.882;2023-02-13T01:33:23;102981.94;;;7.08;100.00
43770;BME280;6597;52.218;9.882;2023-02-13T01:35:53;102981.09;;;7.09;100.00
43770;BME280;6597;52.218;9.882;2023-02-13T01:38:20;102973.28;;;7.11;100.00
43770;BME280;6597;52.218;9.882;2023-02-13T01:40:48;102981.97;;;7.11;100.00
43770;BME280;6597;52.218;9.882;2023-02-13T01:43:16;102971.53;;;7.11;100.00
43770;BME280;6597;52.218;9.882;2023-02-13T01:45:46;102968.00;;;7.08;100.00
43770;BME280;6597;52.218;9.882;2023-02-13T01:48:18;102976.75;;;7.11;100.00
43770;BME280;6597;52.218;9.882;2023-02-13T01:50:52;102971.50;;;7.10;100.00
43770;BME280;6597;52.218;9.882;2023-02-13T01:53:24;102977.56;;;7.07;100.00
43770;BME280;6597;52.218;9.882;2023-02-13T01:55:54;102974.03;;;7.04;100.00
43770;BME280;6597;52.218;9.882;2023-02-13T01:58:24;102968.81;;;7.04;100.00
43770;BME280;6597;52.218;9.882;2023-02-13T02:00:53;102959.16;;;6.97;100.00
43770;BME280;6597;52.218;9.882;2023-02-13T02:03:23;102967.88;;;6.99;100.00
43770;BME280;6597;52.218;9.882;2023-02-13T02:05:59;102967.03;;;7.00;100.00
43770;BME280;6597;52.218;9.882;2023-02-13T02:08:27;102971.44;;;7.04;100.00
43770;BME280;6597;52.218;9.882;2023-02-13T02:10:59;102961.78;;;7.00;100.00
43770;BME280;6597;52.218;9.882;2023-02-13T02:13:29;102967.84;;;6.97;100.00
43770;BME280;6597;52.218;9.882;2023-02-13T02:16:02;102969.59;;;6.97;100.00
43770;BME280;6597;52.218;9.882;2023-02-13T02:18:29;102967.00;;;6.98;100.00
43770;BME280;6597;52.218;9.882;2023-02-13T02:21:17;102964.34;;;6.95;100.00
43770;BME280;6597;52.218;9.882;2023-02-13T02:27:22;102966.09;;;6.96;100.00
43770;BME280;6597;52.218;9.882;2023-02-13T02:30:16;102954.72;;;6.93;100.00
43770;BME280;6597;52.218;9.882;2023-02-13T02:32:56;102948.63;;;6.92;100.00
43770;BME280;6597;52.218;9.882;2023-02-13T02:35:37;102951.28;;;6.95;100.00
43770;BME280;6597;52.218;9.882;2023-02-13T02:38:14;102953.09;;;6.99;100.00
43770;BME280;6597;52.218;9.882;2023-02-13T02:40:57;102947.88;;;6.99;100.00
43770;BME280;6597;52.218;9.882;2023-02-13T02:43:47;102942.56;;;6.95;100.00
43770;BME280;6597;52.218;9.882;2023-02-13T02:46:26;102944.34;;;6.97;100.00
43770;BME280;6597;52.218;9.882;2023-02-13T02:49:01;102942.63;;;6.98;100.00
43770;BME280;6597;52.218;9.882;2023-02-13T02:51:54;102936.53;;;6.99;100.00
43770;BME280;6597;52.218;9.882;2023-02-13T02:54:26;102937.38;;;6.96;100.00
43770;BME280;6597;52.218;9.882;2023-02-13T02:57:16;102932.97;;;6.92;100.00
43770;BME280;6597;52.218;9.882;2023-02-13T02:59:52;102929.47;;;6.90;100.00
43770;BME280;6597;52.218;9.882;2023-02-13T03:02:37;102927.72;;;6.91;100.00
43770;BME280;6597;52.218;9.882;2023-02-13T03:05:26;102926.81;;;6.87;100.00
43770;BME280;6597;52.218;9.882;2023-02-13T03:08:13;102936.47;;;6.94;100.00
43770;BME280;6597;52.218;9.882;2023-02-13T03:10:40;102925.19;;;6.95;100.00
43770;BME280;6597;52.218;9.882;2023-02-13T03:13:38;102933.06;;;6.98;100.00
43770;BME280;6597;52.218;9.882;2023-02-13T03:16:11;102933.06;;;7.00;100.00
43770;BME280;6597;52.218;9.882;2023-02-13T03:18:58;102934.81;;;7.01;100.00
43770;BME280;6597;52.218;9.882;2023-02-13T03:21:57;102937.47;;;7.02;100.00
43770;BME280;6597;52.218;9.882;2023-02-13T03:24:48;102937.47;;;7.04;100.00
43770;BME280;6597;52.218;9.882;2023-02-13T03:27:27;102939.22;;;7.05;100.00
43770;BME280;6597;52.218;9.882;2023-02-13T03:30:22;102939.19;;;7.02;100.00
43770;BME280;6597;52.218;9.882;2023-02-13T03:32:58;102939.16;;;7.00;100.00
43770;BME280;6597;52.218;9.882;2023-02-13T03:35:34;102937.41;;;6.98;100.00
43770;BME280;6597;52.218;9.882;2023-02-13T03:38:24;102930.44;;;6.98;100.00
43770;BME280;6597;52.218;9.882;2023-02-13T03:40:57;102933.06;;;7.00;100.00
43770;BME280;6597;52.218;9.882;2023-02-13T03:44:01;102942.59;;;6.96;100.00
43770;BME280;6597;52.218;9.882;2023-02-13T03:46:34;102948.66;;;6.94;100.00
43770;BME280;6597;52.218;9.882;2023-02-13T03:49:03;102949.53;;;6.94;100.00
43770;BME280;6597;52.218;9.882;2023-02-13T03:51:53;102942.59;;;6.96;100.00
43770;BME280;6597;52.218;9.882;2023-02-13T03:54:32;102946.94;;;6.96;100.00
43770;BME280;6597;52.218;9.882;2023-02-13T03:57:19;102940.88;;;6.97;100.00
43770;BME280;6597;52.218;9.882;2023-02-13T04:00:09;102956.50;;;6.95;100.00
43770;BME280;6597;52.218;9.882;2023-02-13T04:02:44;102943.44;;;6.95;100.00
43770;BME280;6597;52.218;9.882;2023-02-13T04:05:16;102946.03;;;6.92;100.00
43770;BME280;6597;52.218;9.882;2023-02-13T04:07:44;102952.16;;;6.94;100.00
43770;BME280;6597;52.218;9.882;2023-02-13T04:10:14;102950.44;;;6.96;100.00
43770;BME280;6597;52.218;9.882;2023-02-13T04:12:47;102946.16;;;7.01;100.00
43770;BME280;6597;52.218;9.882;2023-02-13T04:15:18;102944.41;;;7.02;100.00
43770;BME280;6597;52.218;9.882;2023-02-13T04:17:49;102935.69;;;7.00;100.00
43770;BME280;6597;52.218;9.882;2023-02-13T04:20:18;102933.06;;;6.98;100.00
43770;BME280;6597;52.218;9.882;2023-02-13T04:22:46;102940.03;;;6.99;100.00
43770;BME280;6597;52.218;9.882;2023-02-13T04:25:16;102937.41;;;6.98;100.00
43770;BME280;6597;52.218;9.882;2023-02-13T04:27:43;102937.38;;;6.96;100.00
43770;BME280;6597;52.218;9.882;2023-02-13T04:30:10;102934.69;;;6.90;100.00
43770;BME280;6597;52.218;9.882;2023-02-13T04:32:37;102935.44;;;6.83;100.00
43770;BME280;6597;52.218;9.882;2023-02-13T04:35:04;102937.13;;;6.81;100.00
43770;BME280;6597;52.218;9.882;2023-02-13T04:37:31;102934.47;;;6.78;100.00
43770;BME280;6597;52.218;9.882;2023-02-13T04:39:57;102939.66;;;6.75;100.00
43770;BME280;6597;52.218;9.882;2023-02-13T04:42:25;102928.31;;;6.73;100.00
43770;BME280;6597;52.218;9.882;2023-02-13T04:44:51;102923.97;;;6.73;100.00
43770;BME280;6597;52.218;9.882;2023-02-13T04:47:18;102930.91;;;6.73;100.00
43770;BME280;6597;52.218;9.882;2023-02-13T04:49:44;102927.41;;;6.71;100.00
43770;BME280;6597;52.218;9.882;2023-02-13T04:52:11;102921.34;;;6.72;100.00
43770;BME280;6597;52.218;9.882;2023-02-13T04:54:39;102924.84;;;6.74;100.00
43770;BME280;6597;52.218;9.882;2023-02-13T04:57:06;102920.59;;;6.80;100.00
43770;BME280;6597;52.218;9.882;2023-02-13T04:59:33;102923.19;;;6.80;100.00
43770;BME280;6597;52.218;9.882;2023-02-13T05:02:00;102922.31;;;6.80;100.00
43770;BME280;6597;52.218;9.882;2023-02-13T05:04:27;102918.06;;;6.85;100.00
43770;BME280;6597;52.218;9.882;2023-02-13T05:06:54;102921.53;;;6.84;100.00
43770;BME280;6597;52.218;9.882;2023-02-13T05:09:20;102926.81;;;6.89;100.00
43770;BME280;6597;52.218;9.882;2023-02-13T05:11:50;102921.59;;;6.87;100.00
43770;BME280;6597;52.218;9.882;2023-02-13T05:14:16;102932.06;;;6.89;100.00
43770;BME280;6597;52.218;9.882;2023-02-13T05:16:44;102924.19;;;6.85;100.00
43770;BME280;6597;52.218;9.882;2023-02-13T05:19:11;102930.28;;;6.86;100.00
43770;BME280;6597;52.218;9.882;2023-02-13T05:21:37;102937.16;;;6.82;100.00
43770;BME280;6597;52.218;9.882;2023-02-13T05:24:22;102924.06;;;6.81;100.00
43770;BME280;6597;52.218;9.882;2023-02-13T05:26:48;102936.25;;;6.80;100.00
43770;BME280;6597;52.218;9.882;2023-02-13T05:29:15;102932.88;;;6.84;100.00
43770;BME280;6597;52.218;9.882;2023-02-13T05:31:45;102939.88;;;6.89;100.00
43770;BME280;6597;52.218;9.882;2023-02-13T05:34:11;102950.31;;;6.87;100.00
43770;BME280;6597;52.218;9.882;2023-02-13T05:36:38;102940.75;;;6.89;100.00
43770;BME280;6597;52.218;9.882;2023-02-13T05:39:05;102944.28;;;6.91;100.00
43770;BME280;6597;52.218;9.882;2023-02-13T05:41:32;102942.53;;;6.92;100.00
43770;BME280;6597;52.218;9.882;2023-02-13T05:43:58;102943.44;;;6.94;100.00
43770;BME280;6597;52.218;9.882;2023-02-13T05:46:25;102945.19;;;6.95;100.00
43770;BME280;6597;52.218;9.882;2023-02-13T05:48:53;102945.16;;;6.92;100.00
43770;BME280;6597;52.218;9.882;2023-02-13T05:51:19;102941.75;;;6.97;100.00
43770;BME280;6597;52.218;9.882;2023-02-13T05:53:46;102945.22;;;6.96;100.00
43770;BME280;6597;52.218;9.882;2023-02-13T05:56:13;102947.84;;;6.98;100.00
43770;BME280;6597;52.218;9.882;2023-02-13T05:58:39;102953.03;;;6.95;100.00
43770;BME280;6597;52.218;9.882;2023-02-13T06:01:06;102952.97;;;6.92;100.00
43770;BME280;6597;52.218;9.882;2023-02-13T06:03:32;102952.97;;;6.90;100.00
43770;BME280;6597;52.218;9.882;2023-02-13T06:06:00;102950.31;;;6.89;100.00
43770;BME280;6597;52.218;9.882;2023-02-13T06:08:27;102954.66;;;6.88;100.00
43770;BME280;6597;52.218;9.882;2023-02-13T06:10:53;102959.06;;;6.91;100.00
43770;BME280;6597;52.218;9.882;2023-02-13T06:13:20;102952.91;;;6.87;100.00
43770;BME280;6597;52.218;9.882;2023-02-13T06:15:46;102952.94;;;6.89;100.00
43770;BME280;6597;52.218;9.882;2023-02-13T06:18:15;102964.25;;;6.88;100.00
43770;BME280;6597;52.218;9.882;2023-02-13T06:20:41;102962.47;;;6.86;100.00
43770;BME280;6597;52.218;9.882;2023-02-13T06:23:09;102967.72;;;6.88;100.00
43770;BME280;6597;52.218;9.882;2023-02-13T06:25:36;102960.81;;;6.92;100.00
43770;BME280;6597;52.218;9.882;2023-02-13T06:28:04;102960.81;;;6.92;100.00
43770;BME280;6597;52.218;9.882;2023-02-13T06:30:31;102958.19;;;6.92;100.00
43770;BME280;6597;52.218;9.882;2023-02-13T06:32:57;102953.84;;;6.91;100.00
43770;BME280;6597;52.218;9.882;2023-02-13T06:35:24;102963.50;;;6.96;100.00
43770;BME280;6597;52.218;9.882;2023-02-13T06:37:51;102972.13;;;6.92;100.00
43770;BME280;6597;52.218;9.882;2023-02-13T06:40:19;102966.88;;;6.91;100.00
43770;BME280;6597;52.218;9.882;2023-02-13T06:42:45;102969.56;;;6.95;100.00
43770;BME280;6597;52.218;9.882;2023-02-13T06:45:12;102965.19;;;6.94;100.00
43770;BME280;6597;52.218;9.882;2023-02-13T06:47:40;102967.81;;;6.94;100.00
43770;BME280;6597;52.218;9.882;2023-02-13T06:50:08;102969.53;;;6.94;100.00
43770;BME280;6597;52.218;9.882;2023-02-13T06:52:35;102965.19;;;6.93;100.00
43770;BME280;6597;52.218;9.882;2023-02-13T06:55:01;102980.81;;;6.91;100.00
43770;BME280;6597;52.218;9.882;2023-02-13T06:57:31;102976.41;;;6.87;100.00
43770;BME280;6597;52.218;9.882;2023-02-13T06:59:58;102982.44;;;6.83;100.00
43770;BME280;6597;52.218;9.882;2023-02-13T07:02:24;102985.81;;;6.79;100.00
43770;BME280;6597;52.218;9.882;2023-02-13T07:04:51;102987.59;;;6.80;100.00
43770;BME280;6597;52.218;9.882;2023-02-13T07:07:18;102989.31;;;6.79;100.00
43770;BME280;6597;52.218;9.882;2023-02-13T07:09:44;102989.22;;;6.73;100.00
43770;BME280;6597;52.218;9.882;2023-02-13T07:12:11;102988.34;;;6.73;100.00
43770;BME280;6597;52.218;9.882;2023-02-13T07:14:39;102992.75;;;6.77;100.00
43770;BME280;6597;52.218;9.882;2023-02-13T07:17:06;102987.59;;;6.81;100.00
43770;BME280;6597;52.218;9.882;2023-02-13T07:19:32;102989.41;;;6.84;100.00
43770;BME280;6597;52.218;9.882;2023-02-13T07:21:59;102991.97;;;6.82;100.00
43770;BME280;6597;52.218;9.882;2023-02-13T07:24:25;102990.22;;;6.81;100.00
43770;BME280;6597;52.218;9.882;2023-02-13T07:26:52;102996.31;;;6.82;100.00
43770;BME280;6597;52.218;9.882;2023-02-13T07:29:18;102991.03;;;6.77;100.00
43770;BME280;6597;52.218;9.882;2023-02-13T07:31:46;102994.47;;;6.75;100.00
43770;BME280;6597;52.218;9.882;2023-02-13T07:34:13;103010.13;;;6.75;100.00
43770;BME280;6597;52.218;9.882;2023-02-13T07:36:39;103001.44;;;6.76;100.00
43770;BME280;6597;52.218;9.882;2023-02-13T07:39:06;102998.84;;;6.77;100.00
43770;BME280;6597;52.218;9.882;2023-02-13T07:41:32;103011.88;;;6.76;100.00
43770;BME280;6597;52.218;9.882;2023-02-13T07:43:59;103007.56;;;6.78;100.00
43770;BME280;6597;52.218;9.882;2023-02-13T07:46:25;103015.41;;;6.78;100.00
43770;BME280;6597;52.218;9.882;2023-02-13T07:48:53;103017.16;;;6.79;100.00
43770;BME280;6597;52.218;9.882;2023-02-13T07:51:20;103019.81;;;6.82;100.00
43770;BME280;6597;52.218;9.882;2023-02-13T07:53:49;103020.75;;;6.84;100.00
43770;BME280;6597;52.218;9.882;2023-02-13T07:56:16;103015.59;;;6.89;100.00
43770;BME280;6597;52.218;9.882;2023-02-13T07:58:42;103013.88;;;6.89;100.00
43770;BME280;6597;52.218;9.882;2023-02-13T08:01:11;103019.00;;;6.84;100.00
43770;BME280;6597;52.218;9.882;2023-02-13T08:03:38;103012.06;;;6.85;100.00
43770;BME280;6597;52.218;9.882;2023-02-13T08:06:07;103019.06;;;6.88;100.00
43770;BME280;6597;52.218;9.882;2023-02-13T08:08:35;103019.09;;;6.89;100.00
43770;BME280;6597;52.218;9.882;2023-02-13T08:11:04;103020.00;;;6.93;100.00
43770;BME280;6597;52.218;9.882;2023-02-13T08:13:50;103021.78;;;6.95;100.00
43770;BME280;6597;52.218;9.882;2023-02-13T08:16:16;103029.75;;;7.03;100.00
43770;BME280;6597;52.218;9.882;2023-02-13T08:18:43;103019.34;;;7.07;100.00
43770;BME280;6597;52.218;9.882;2023-02-13T08:21:11;103018.53;;;7.10;100.00
43770;BME280;6597;52.218;9.882;2023-02-13T08:23:39;103024.63;;;7.10;100.00
43770;BME280;6597;52.218;9.882;2023-02-13T08:26:05;103020.41;;;7.17;100.00
43770;BME280;6597;52.218;9.882;2023-02-13T08:28:32;103023.94;;;7.21;100.00
43770;BME280;6597;52.218;9.882;2023-02-13T08:30:58;103013.47;;;7.19;100.00
43770;BME280;6597;52.218;9.882;2023-02-13T08:33:25;103021.44;;;7.28;100.00
43770;BME280;6597;52.218;9.882;2023-02-13T08:35:51;103010.13;;;7.29;100.00
43770;BME280;6597;52.218;9.882;2023-02-13T08:38:19;103021.56;;;7.37;100.00
43770;BME280;6597;52.218;9.882;2023-02-13T08:40:46;103013.03;;;7.49;100.00
43770;BME280;6597;52.218;9.882;2023-02-13T08:43:12;103010.44;;;7.52;100.00
43770;BME280;6597;52.218;9.882;2023-02-13T08:45:39;103021.84;;;7.57;100.00
43770;BME280;6597;52.218;9.882;2023-02-13T08:48:05;103013.16;;;7.58;100.00
43770;BME280;6597;52.218;9.882;2023-02-13T08:50:32;103021.03;;;7.61;100.00
43770;BME280;6597;52.218;9.882;2023-02-13T08:52:59;103009.63;;;7.55;100.00
43770;BME280;6597;52.218;9.882;2023-02-13T08:55:27;103016.63;;;7.57;100.00
43770;BME280;6597;52.218;9.882;2023-02-13T08:57:58;103014.81;;;7.53;100.00
43770;BME280;6597;52.218;9.882;2023-02-13T09:00:25;103022.78;;;7.64;100.00
43770;BME280;6597;52.218;9.882;2023-02-13T09:02:51;103022.84;;;7.68;100.00
43770;BME280;6597;52.218;9.882;2023-02-13T09:05:18;103021.06;;;7.64;99.97
43770;BME280;6597;52.218;9.882;2023-02-13T09:07:45;103029.81;;;7.66;99.93
43770;BME280;6597;52.218;9.882;2023-02-13T09:10:11;103024.56;;;7.66;99.38
43770;BME280;6597;52.218;9.882;2023-02-13T09:12:39;103026.41;;;7.73;99.42
43770;BME280;6597;52.218;9.882;2023-02-13T09:15:06;103021.38;;;7.89;98.73
43770;BME280;6597;52.218;9.882;2023-02-13T09:17:33;103022.28;;;7.91;98.45
43770;BME280;6597;52.218;9.882;2023-02-13T09:19:59;103026.72;;;7.98;97.33
43770;BME280;6597;52.218;9.882;2023-02-13T09:22:26;103012.81;;;8.03;96.25
43770;BME280;6597;52.218;9.882;2023-02-13T09:24:52;103021.56;;;8.05;95.51
43770;BME280;6597;52.218;9.882;2023-02-13T09:27:19;103018.91;;;8.01;95.34
43770;BME280;6597;52.218;9.882;2023-02-13T09:29:47;103013.69;;;8.04;95.97
43770;BME280;6597;52.218;9.882;2023-02-13T09:32:13;103019.69;;;7.92;94.68
43770;BME280;6597;52.218;9.882;2023-02-13T09:34:41;103011.06;;;8.02;95.08
43770;BME280;6597;52.218;9.882;2023-02-13T09:37:07;103011.22;;;8.13;95.02
43770;BME280;6597;52.218;9.882;2023-02-13T09:39:34;103014.63;;;8.09;94.70
43770;BME280;6597;52.218;9.882;2023-02-13T09:42:01;103012.88;;;8.09;94.30
43770;BME280;6597;52.218;9.882;2023-02-13T09:44:33;103015.63;;;8.17;94.26
43770;BME280;6597;52.218;9.882;2023-02-13T09:47:12;103012.09;;;8.15;93.82
43770;BME280;6597;52.218;9.882;2023-02-13T09:49:44;103010.34;;;8.14;94.23
43770;BME280;6597;52.218;9.882;2023-02-13T09:52:12;103013.94;;;8.25;93.70
43770;BME280;6597;52.218;9.882;2023-02-13T09:54:39;103013.16;;;8.32;93.11
43770;BME280;6597;52.218;9.882;2023-02-13T09:57:13;103027.19;;;8.39;92.06
43770;BME280;6597;52.218;9.882;2023-02-13T09:59:47;103012.25;;;8.30;92.23
43770;BME280;6597;52.218;9.882;2023-02-13T10:02:34;103014.84;;;8.29;92.65
43770;BME280;6597;52.218;9.882;2023-02-13T10:05:14;103019.31;;;8.36;91.93
43770;BME280;6597;52.218;9.882;2023-02-13T10:07:48;103019.38;;;8.43;91.85
43770;BME280;6597;52.218;9.882;2023-02-13T10:10:25;103022.94;;;8.46;92.30
43770;BME280;6597;52.218;9.882;2023-02-13T10:13:11;103023.88;;;8.54;90.62
43770;BME280;6597;52.218;9.882;2023-02-13T10:15:51;103017.66;;;8.44;89.43
43770;BME280;6597;52.218;9.882;2023-02-13T10:18:24;103022.94;;;8.49;89.72
43770;BME280;6597;52.218;9.882;2023-02-13T10:20:58;103020.38;;;8.52;90.00
43770;BME280;6597;52.218;9.882;2023-02-13T10:23:29;103022.22;;;8.63;88.93
43770;BME280;6597;52.218;9.882;2023-02-13T10:25:59;103019.56;;;8.60;89.79
43770;BME280;6597;52.218;9.882;2023-02-13T10:28:31;103025.69;;;8.62;89.65
43770;BME280;6597;52.218;9.882;2023-02-13T10:31:04;103028.50;;;8.82;89.36
43770;BME280;6597;52.218;9.882;2023-02-13T10:33:39;103025.88;;;8.82;89.65
43770;BME280;6597;52.218;9.882;2023-02-13T10:36:15;103015.34;;;8.78;87.96
43770;BME280;6597;52.218;9.882;2023-02-13T10:38:47;103031.13;;;8.82;88.56
43770;BME280;6597;52.218;9.882;2023-02-13T10:41:24;103027.53;;;8.74;89.11
43770;BME280;6597;52.218;9.882;2023-02-13T10:44:07;103028.59;;;8.94;88.99
43770;BME280;6597;52.218;9.882;2023-02-13T10:46:42;103028.66;;;9.07;87.34
43770;BME280;6597;52.218;9.882;2023-02-13T10:49:26;103026.91;;;9.05;87.47
43770;BME280;6597;52.218;9.882;2023-02-13T10:52:05;103020.84;;;9.10;86.88
43770;BME280;6597;52.218;9.882;2023-02-13T10:54:49;103021.69;;;9.05;86.32
43770;BME280;6597;52.218;9.882;2023-02-13T10:57:22;103031.16;;;8.85;87.49
43770;BME280;6597;52.218;9.882;2023-02-13T11:00:02;103024.16;;;8.86;87.68
43770;BME280;6597;52.218;9.882;2023-02-13T11:02:31;103030.28;;;8.89;86.78
43770;BME280;6597;52.218;9.882;2023-02-13T11:05:10;103026.13;;;9.11;86.52
43770;BME280;6597;52.218;9.882;2023-02-13T11:07:39;103023.59;;;9.28;86.40
43770;BME280;6597;52.218;9.882;2023-02-13T11:10:14;103027.03;;;9.18;86.30
43770;BME280;6597;52.218;9.882;2023-02-13T11:12:40;103022.53;;;9.03;85.71
43770;BME280;6597;52.218;9.882;2023-02-13T11:15:20;103017.28;;;9.03;84.81
43770;BME280;6597;52.218;9.882;2023-02-13T11:17:47;103020.06;;;9.20;84.99
43770;BME280;6597;52.218;9.882;2023-02-13T11:20:29;103009.63;;;9.29;84.13
43770;BME280;6597;52.218;9.882;2023-02-13T11:23:14;103005.34;;;9.43;84.20
43770;BME280;6597;52.218;9.882;2023-02-13T11:25:52;102997.44;;;9.40;84.28
43770;BME280;6597;52.218;9.882;2023-02-13T11:28:21;103007.03;;;9.35;84.83
43770;BME280;6597;52.218;9.882;2023-02-13T11:30:48;103002.69;;;9.40;85.08
43770;BME280;6597;52.218;9.882;2023-02-13T11:33:22;103000.94;;;9.39;85.04
43770;BME280;6597;52.218;9.882;2023-02-13T11:36:04;102998.31;;;9.39;84.07
43770;BME280;6597;52.218;9.882;2023-02-13T11:38:31;102999.25;;;9.47;83.68
43770;BME280;6597;52.218;9.882;2023-02-13T11:41:05;103001.88;;;9.44;83.58
43770;BME280;6597;52.218;9.882;2023-02-13T11:43:34;103001.97;;;9.72;83.95
43770;BME280;6597;52.218;9.882;2023-02-13T11:46:03;103004.66;;;9.84;81.78
43770;BME280;6597;52.218;9.882;2023-02-13T11:48:31;103003.78;;;9.85;81.59
43770;BME280;6597;52.218;9.882;2023-02-13T11:50:59;102994.09;;;9.73;82.55
43770;BME280;6597;52.218;9.882;2023-02-13T11:53:29;102993.19;;;9.65;82.25
43770;BME280;6597;52.218;9.882;2023-02-13T11:56:02;102994.03;;;9.53;81.74
43770;BME280;6597;52.218;9.882;2023-02-13T11:58:30;102984.41;;;9.49;82.23
43770;BME280;6597;52.218;9.882;2023-02-13T12:01:22;102986.19;;;9.55;82.57
43770;BME280;6597;52.218;9.882;2023-02-13T12:04:13;102981.69;;;9.35;81.80
43770;BME280;6597;52.218;9.882;2023-02-13T12:06:57;102981.66;;;9.28;81.77
43770;BME280;6597;52.218;9.882;2023-02-13T12:09:24;102979.84;;;9.16;82.46
43770;BME280;6597;52.218;9.882;2023-02-13T12:11:52;102986.88;;;9.25;82.99
43770;BME280;6597;52.218;9.882;2023-02-13T12:14:22;102980.78;;;9.30;82.27
43770;BME280;6597;52.218;9.882;2023-02-13T12:16:51;102980.03;;;9.53;82.98
43770;BME280;6597;52.218;9.882;2023-02-13T12:19:24;102976.66;;;9.77;81.96
43770;BME280;6597;52.218;9.882;2023-02-13T12:22:13;102975.72;;;9.65;81.25
43770;BME280;6597;52.218;9.882;2023-02-13T12:24:53;102972.22;;;9.63;80.91
43770;BME280;6597;52.218;9.882;2023-02-13T12:27:31;102966.06;;;9.55;80.31
43770;BME280;6597;52.218;9.882;2023-02-13T12:30:15;102962.50;;;9.40;81.30
43770;BME280;6597;52.218;9.882;2023-02-13T12:32:55;102952.97;;;9.61;81.42
43770;BME280;6597;52.218;9.882;2023-02-13T12:35:38;102949.50;;;9.72;80.58
43770;BME280;6597;52.218;9.882;2023-02-13T12:38:18;102959.13;;;9.66;80.13
43770;BME280;6597;52.218;9.882;2023-02-13T12:40:58;102946.91;;;9.73;77.81
43770;BME280;6597;52.218;9.882;2023-02-13T12:43:53;102949.47;;;9.56;78.62
43770;BME280;6597;52.218;9.882;2023-02-13T12:46:28;102945.09;;;9.51;78.29
43770;BME280;6597;52.218;9.882;2023-02-13T12:49:02;102952.06;;;9.47;78.45
43770;BME280;6597;52.218;9.882;2023-02-13T12:51:40;102951.22;;;9.56;77.74
43770;BME280;6597;52.218;9.882;2023-02-13T12:54:26;102946.00;;;9.65;77.75
43770;BME280;6597;52.218;9.882;2023-02-13T12:57:16;102941.63;;;9.68;76.86
43770;BME280;6597;52.218;9.882;2023-02-13T12:59:58;102947.75;;;9.61;77.32
43770;BME280;6597;52.218;9.882;2023-02-13T13:05:28;102941.66;;;9.73;77.88
43770;BME280;6597;52.218;9.882;2023-02-13T13:11:01;102948.69;;;9.85;77.05
43770;BME280;6597;52.218;9.882;2023-02-13T13:13:38;102944.28;;;9.75;77.10
43770;BME280;6597;52.218;9.882;2023-02-13T13:16:12;102941.69;;;9.84;76.24
43770;BME280;6597;52.218;9.882;2023-02-13T13:18:50;102947.75;;;9.71;77.65
43770;BME280;6597;52.218;9.882;2023-02-13T13:21:27;102937.31;;;9.78;78.00
43770;BME280;6597;52.218;9.882;2023-02-13T13:23:59;102949.53;;;9.75;76.48
43770;BME280;6597;52.218;9.882;2023-02-13T13:26:34;102937.25;;;9.61;76.44
43770;BME280;6597;52.218;9.882;2023-02-13T13:29:04;102937.25;;;9.57;77.20
43770;BME280;6597;52.218;9.882;2023-02-13T13:31:34;102929.38;;;9.58;77.49
43770;BME280;6597;52.218;9.882;2023-02-13T13:34:05;102929.38;;;9.61;77.62
43770;BME280;6597;52.218;9.882;2023-02-13T13:36:37;102933.75;;;9.61;77.28